createdAt,value
2018-09-01T00:01:43.315Z,15.95
2018-09-01T00:04:10.962Z,15.91
2018-09-01T00:06:38.571Z,15.85
2018-09-01T00:09:06.711Z,15.80
2018-09-01T00:11:34.392Z,15.77
2018-09-01T00:14:02.034Z,15.79
2018-09-01T00:16:29.677Z,15.83
2018-09-01T00:18:57.320Z,15.85
2018-09-01T00:21:24.992Z,15.81
2018-09-01T00:23:52.591Z,15.76
2018-09-01T00:26:20.220Z,15.75
2018-09-01T00:28:47.842Z,15.74
2018-09-01T00:31:15.482Z,15.69
2018-09-01T00:33:43.127Z,15.67
2018-09-01T00:36:10.876Z,15.63
2018-09-01T00:38:44.074Z,15.59
2018-09-01T00:41:11.687Z,15.55
2018-09-01T00:43:39.297Z,15.55
2018-09-01T00:46:06.950Z,15.47
2018-09-01T00:48:34.586Z,15.42
2018-09-01T00:51:02.212Z,15.39
2018-09-01T00:53:29.856Z,15.37
2018-09-01T00:55:57.496Z,15.35
2018-09-01T00:58:25.113Z,15.36
2018-09-01T01:00:52.769Z,15.36
2018-09-01T01:03:20.376Z,15.35
2018-09-01T01:05:48.086Z,15.33
2018-09-01T01:08:15.741Z,15.35
2018-09-01T01:10:43.323Z,15.35
2018-09-01T01:13:10.934Z,15.34
2018-09-01T01:15:38.568Z,15.36
2018-09-01T01:18:06.170Z,15.33
2018-09-01T01:20:33.781Z,15.23
2018-09-01T01:23:01.519Z,15.28
2018-09-01T01:25:29.133Z,15.27
2018-09-01T01:27:56.798Z,15.28
2018-09-01T01:30:24.446Z,15.31
2018-09-01T01:32:52.091Z,15.33
2018-09-01T01:35:19.727Z,15.34
2018-09-01T01:37:47.366Z,15.31
2018-09-01T01:40:15.011Z,15.30
2018-09-01T01:42:42.805Z,15.24
2018-09-01T01:45:10.565Z,15.19
2018-09-01T01:47:39.594Z,15.23
2018-09-01T01:50:08.142Z,15.20
2018-09-01T01:52:35.791Z,15.18
2018-09-01T01:55:03.440Z,15.17
2018-09-01T01:57:31.137Z,15.11
2018-09-01T01:59:58.760Z,15.07
2018-09-01T02:02:26.457Z,15.03
2018-09-01T02:04:54.055Z,14.96
2018-09-01T02:07:21.727Z,14.96
2018-09-01T02:09:49.373Z,14.93
2018-09-01T02:12:16.963Z,14.90
2018-09-01T02:14:44.626Z,14.87
2018-09-01T02:17:12.342Z,14.77
2018-09-01T02:19:40.061Z,14.77
2018-09-01T02:22:07.715Z,14.65
2018-09-01T02:24:35.372Z,14.59
2018-09-01T02:27:02.979Z,14.59
2018-09-01T02:29:30.630Z,14.70
2018-09-01T02:31:58.286Z,14.74
2018-09-01T02:34:25.876Z,14.77
2018-09-01T02:36:53.508Z,14.74
2018-09-01T02:39:21.096Z,14.77
2018-09-01T02:41:48.692Z,14.79
2018-09-01T02:44:16.337Z,14.79
2018-09-01T02:46:43.956Z,14.82
2018-09-01T02:49:11.598Z,14.78
2018-09-01T02:51:39.266Z,14.72
2018-09-01T02:54:06.919Z,14.67
2018-09-01T02:56:34.582Z,14.66
2018-09-01T02:59:02.269Z,14.70
2018-09-01T03:01:34.934Z,14.71
2018-09-01T03:04:02.632Z,14.73
2018-09-01T03:06:41.311Z,14.72
2018-09-01T03:09:08.945Z,14.75
2018-09-01T03:11:36.650Z,14.77
2018-09-01T03:14:04.285Z,14.69
2018-09-01T03:16:31.935Z,14.66
2018-09-01T03:18:59.608Z,14.65
2018-09-01T03:21:27.191Z,14.60
2018-09-01T03:23:54.855Z,14.59
2018-09-01T03:26:22.487Z,14.58
2018-09-01T03:28:50.252Z,14.57
2018-09-01T03:31:17.872Z,14.57
2018-09-01T03:33:45.465Z,14.57
2018-09-01T03:36:13.257Z,14.56
2018-09-01T03:38:40.896Z,14.54
2018-09-01T03:41:08.572Z,14.54
2018-09-01T03:43:36.212Z,14.54
2018-09-01T03:46:03.894Z,14.50
2018-09-01T03:48:31.512Z,14.51
2018-09-01T03:50:59.207Z,14.51
2018-09-01T03:53:26.827Z,14.50
2018-09-01T03:55:54.482Z,14.44
2018-09-01T03:58:22.175Z,14.34
2018-09-01T04:00:49.991Z,14.31
2018-09-01T04:03:17.610Z,14.30
2018-09-01T04:05:45.262Z,14.39
2018-09-01T04:08:12.894Z,14.33
2018-09-01T04:10:40.508Z,14.34
2018-09-01T04:13:08.111Z,14.31
2018-09-01T04:15:35.807Z,14.34
2018-09-01T04:18:03.423Z,14.32
2018-09-01T04:20:31.043Z,14.26
2018-09-01T04:22:58.684Z,14.25
2018-09-01T04:25:26.292Z,14.24
2018-09-01T04:27:53.946Z,14.20
2018-09-01T04:30:21.599Z,14.29
2018-09-01T04:32:49.243Z,14.31
2018-09-01T04:35:16.861Z,14.35
2018-09-01T04:37:44.583Z,14.39
2018-09-01T04:40:12.185Z,14.40
2018-09-01T04:42:39.794Z,14.43
2018-09-01T04:45:07.511Z,14.43
2018-09-01T04:47:35.081Z,14.40
2018-09-01T04:50:02.732Z,14.38
2018-09-01T04:52:30.390Z,14.41
2018-09-01T04:54:58.023Z,14.47
2018-09-01T04:57:25.659Z,14.51
2018-09-01T04:59:53.285Z,14.58
2018-09-01T05:02:20.888Z,14.61
2018-09-01T05:04:48.499Z,14.52
2018-09-01T05:07:16.223Z,14.59
2018-09-01T05:09:43.836Z,14.63
2018-09-01T05:12:11.587Z,14.65
2018-09-01T05:14:39.215Z,14.74
2018-09-01T05:17:07.109Z,14.86
2018-09-01T05:19:34.742Z,14.99
2018-09-01T05:22:02.591Z,15.11
2018-09-01T05:24:30.219Z,15.23
2018-09-01T05:26:57.986Z,15.34
2018-09-01T05:29:25.696Z,15.46
2018-09-01T05:31:53.304Z,15.54
2018-09-01T05:34:20.954Z,15.62
2018-09-01T05:36:48.564Z,15.69
2018-09-01T05:39:16.173Z,15.78
2018-09-01T05:41:43.819Z,15.79
2018-09-01T05:44:11.459Z,15.71
2018-09-01T05:46:39.098Z,15.72
2018-09-01T05:49:06.765Z,15.75
2018-09-01T05:51:34.446Z,15.71
2018-09-01T05:54:02.069Z,15.65
2018-09-01T05:56:29.681Z,15.84
2018-09-01T05:58:57.307Z,15.84
2018-09-01T06:01:24.990Z,15.78
2018-09-01T06:03:52.678Z,15.83
2018-09-01T06:06:20.353Z,15.88
2018-09-01T06:08:47.996Z,15.97
2018-09-01T06:11:15.591Z,16.03
2018-09-01T06:13:43.220Z,16.11
2018-09-01T06:16:10.827Z,16.09
2018-09-01T06:18:38.462Z,16.01
2018-09-01T06:21:06.081Z,15.96
2018-09-01T06:23:33.663Z,15.98
2018-09-01T06:26:01.312Z,16.08
2018-09-01T06:28:37.811Z,16.05
2018-09-01T06:31:05.931Z,16.10
2018-09-01T06:33:33.609Z,16.14
2018-09-01T06:36:01.367Z,16.24
2018-09-01T06:38:28.966Z,16.38
2018-09-01T06:40:56.585Z,16.54
2018-09-01T06:43:24.199Z,16.58
2018-09-01T06:45:51.915Z,16.68
2018-09-01T06:48:19.596Z,16.86
2018-09-01T06:50:47.228Z,16.92
2018-09-01T06:53:14.813Z,16.81
2018-09-01T06:55:42.415Z,16.86
2018-09-01T06:58:10.083Z,16.74
2018-09-01T07:00:37.680Z,16.83
2018-09-01T07:03:05.630Z,16.71
2018-09-01T07:05:33.279Z,16.63
2018-09-01T07:08:00.923Z,16.67
2018-09-01T07:10:28.580Z,16.63
2018-09-01T07:12:56.240Z,16.81
2018-09-01T07:15:23.847Z,16.93
2018-09-01T07:17:51.486Z,16.91
2018-09-01T07:20:19.156Z,16.91
2018-09-01T07:22:46.772Z,16.94
2018-09-01T07:25:14.535Z,16.93
2018-09-01T07:27:42.210Z,16.84
2018-09-01T07:30:10.642Z,16.53
2018-09-01T07:32:38.564Z,16.57
2018-09-01T07:35:06.309Z,16.67
2018-09-01T07:37:33.951Z,16.79
2018-09-01T07:40:01.549Z,16.95
2018-09-01T07:42:29.184Z,17.09
2018-09-01T07:44:56.919Z,17.22
2018-09-01T07:47:24.609Z,17.31
2018-09-01T07:49:52.744Z,17.33
2018-09-01T07:52:20.376Z,17.37
2018-09-01T07:54:47.973Z,17.43
2018-09-01T07:57:15.600Z,17.44
2018-09-01T07:59:43.218Z,17.55
2018-09-01T08:02:10.808Z,17.58
2018-09-01T08:04:38.440Z,17.80
2018-09-01T08:07:06.047Z,17.66
2018-09-01T08:09:33.668Z,17.63
2018-09-01T08:12:01.375Z,17.62
2018-09-01T08:14:29.035Z,17.67
2018-09-01T08:16:56.791Z,17.66
2018-09-01T08:19:24.439Z,17.52
2018-09-01T08:21:52.155Z,17.60
2018-09-01T08:24:19.763Z,17.65
2018-09-01T08:26:47.400Z,17.64
2018-09-01T08:29:15.063Z,17.79
2018-09-01T08:31:42.680Z,17.79
2018-09-01T08:34:10.381Z,17.84
2018-09-01T08:36:38.019Z,18.11
2018-09-01T08:39:06.541Z,18.54
2018-09-01T08:41:34.195Z,19.26
2018-09-01T08:44:01.788Z,19.85
2018-09-01T08:46:29.450Z,20.71
2018-09-01T08:48:57.096Z,21.99
2018-09-01T08:51:24.712Z,23.11
2018-09-01T08:53:52.409Z,23.25
2018-09-01T08:56:20.136Z,22.52
2018-09-01T08:58:47.720Z,22.03
2018-09-01T09:01:15.346Z,21.78
2018-09-01T09:03:43.003Z,21.73
2018-09-01T09:06:10.631Z,21.63
2018-09-01T09:08:38.330Z,21.43
2018-09-01T09:11:06.353Z,21.19
2018-09-01T09:13:33.999Z,20.88
2018-09-01T09:16:01.636Z,20.54
2018-09-01T09:18:29.319Z,20.48
2018-09-01T09:20:56.921Z,20.32
2018-09-01T09:23:24.559Z,20.08
2018-09-01T09:25:52.226Z,19.90
2018-09-01T09:28:19.822Z,19.68
2018-09-01T09:30:47.507Z,19.64
2018-09-01T09:33:15.171Z,19.51
2018-09-01T09:35:42.756Z,19.51
2018-09-01T09:38:10.415Z,19.49
2018-09-01T09:40:38.067Z,19.67
2018-09-01T09:43:06.008Z,19.81
2018-09-01T09:45:33.614Z,19.82
2018-09-01T09:48:01.260Z,19.83
2018-09-01T09:50:28.868Z,19.80
2018-09-01T09:52:56.491Z,19.83
2018-09-01T09:55:24.140Z,19.82
2018-09-01T09:57:51.758Z,19.76
2018-09-01T10:00:24.987Z,19.88
2018-09-01T10:02:52.603Z,19.92
2018-09-01T10:05:20.255Z,19.82
2018-09-01T10:07:47.877Z,19.86
2018-09-01T10:10:15.471Z,19.73
2018-09-01T10:12:43.059Z,19.66
2018-09-01T10:15:10.672Z,19.60
2018-09-01T10:17:38.294Z,19.50
2018-09-01T10:20:06.044Z,19.46
2018-09-01T10:22:33.680Z,19.36
2018-09-01T10:25:01.259Z,19.30
2018-09-01T10:27:28.860Z,19.27
2018-09-01T10:29:56.482Z,19.19
2018-09-01T10:32:24.101Z,19.08
2018-09-01T10:34:51.807Z,19.11
2018-09-01T10:37:19.505Z,19.18
2018-09-01T10:39:47.114Z,19.17
2018-09-01T10:42:14.731Z,19.13
2018-09-01T10:44:42.405Z,19.03
2018-09-01T10:47:10.008Z,18.96
2018-09-01T10:49:37.591Z,19.05
2018-09-01T10:52:05.344Z,19.11
2018-09-01T10:54:32.956Z,19.11
2018-09-01T10:57:00.559Z,19.14
2018-09-01T10:59:28.372Z,19.22
2018-09-01T11:01:55.898Z,19.20
2018-09-01T11:04:23.699Z,19.20
2018-09-01T11:06:51.355Z,19.30
2018-09-01T11:09:18.982Z,19.37
2018-09-01T11:11:46.617Z,19.37
2018-09-01T11:14:14.249Z,19.50
2018-09-01T11:16:41.867Z,19.63
2018-09-01T11:19:09.513Z,19.63
2018-09-01T11:21:37.411Z,19.66
2018-09-01T11:24:05.083Z,19.61
2018-09-01T11:26:32.674Z,19.61
2018-09-01T11:29:00.382Z,19.73
2018-09-01T11:31:28.068Z,19.66
2018-09-01T11:33:55.684Z,19.75
2018-09-01T11:36:23.379Z,19.76
2018-09-01T11:38:51.068Z,19.69
2018-09-01T11:41:18.739Z,19.74
2018-09-01T11:43:46.398Z,19.71
2018-09-01T11:46:14.072Z,19.71
2018-09-01T11:48:41.702Z,19.79
2018-09-01T11:51:09.343Z,19.83
2018-09-01T11:53:36.983Z,19.80
2018-09-01T11:56:04.617Z,19.82
2018-09-01T11:58:32.284Z,19.79
2018-09-01T12:01:00.016Z,19.91
2018-09-01T12:03:27.628Z,19.82
2018-09-01T12:05:55.342Z,19.75
2018-09-01T12:08:22.956Z,19.75
2018-09-01T12:10:50.630Z,19.71
2018-09-01T12:13:18.267Z,19.63
2018-09-01T12:15:45.933Z,19.64
2018-09-01T12:18:13.544Z,19.65
2018-09-01T12:20:41.387Z,19.62
2018-09-01T12:23:09.013Z,19.67
2018-09-01T12:25:36.617Z,19.67
2018-09-01T12:28:04.378Z,19.62
2018-09-01T12:30:31.964Z,19.67
2018-09-01T12:32:59.597Z,19.71
2018-09-01T12:35:27.252Z,19.77
2018-09-01T12:37:54.848Z,19.75
2018-09-01T12:40:22.456Z,19.71
2018-09-01T12:42:50.280Z,19.76
2018-09-01T12:45:17.903Z,19.80
2018-09-01T12:47:45.495Z,19.83
2018-09-01T12:50:13.196Z,19.87
2018-09-01T12:52:40.844Z,19.93
2018-09-01T12:55:08.485Z,19.89
2018-09-01T12:57:36.182Z,19.90
2018-09-01T13:00:03.992Z,19.85
2018-09-01T13:02:31.651Z,19.88
2018-09-01T13:04:59.310Z,19.94
2018-09-01T13:07:26.915Z,19.84
2018-09-01T13:09:54.533Z,19.90
2018-09-01T13:12:22.160Z,19.98
2018-09-01T13:14:49.764Z,20.09
2018-09-01T13:17:17.340Z,20.10
2018-09-01T13:19:45.064Z,20.19
2018-09-01T13:22:12.613Z,20.29
2018-09-01T13:24:40.183Z,20.34
2018-09-01T13:27:07.832Z,20.36
2018-09-01T13:29:35.460Z,20.22
2018-09-01T13:32:03.144Z,20.21
2018-09-01T13:34:30.959Z,20.27
2018-09-01T13:36:58.570Z,20.29
2018-09-01T13:39:26.273Z,20.29
2018-09-01T13:41:54.051Z,20.38
2018-09-01T13:44:21.677Z,20.44
2018-09-01T13:46:49.311Z,20.54
2018-09-01T13:49:17.042Z,20.51
2018-09-01T13:51:44.659Z,20.52
2018-09-01T13:54:12.330Z,20.50
2018-09-01T13:56:40.000Z,20.46
2018-09-01T13:59:07.597Z,20.42
2018-09-01T14:01:35.235Z,20.33
2018-09-01T14:04:02.935Z,20.27
2018-09-01T14:06:30.567Z,20.25
2018-09-01T14:08:58.170Z,20.17
2018-09-01T14:11:25.827Z,20.13
2018-09-01T14:13:53.405Z,20.09
2018-09-01T14:16:21.004Z,19.94
2018-09-01T14:18:48.738Z,19.73
2018-09-01T14:21:16.332Z,19.50
2018-09-01T14:23:44.011Z,19.35
2018-09-01T14:26:11.694Z,19.29
2018-09-01T14:28:39.378Z,19.29
2018-09-01T14:31:06.960Z,19.32
2018-09-01T14:33:34.663Z,19.31
2018-09-01T14:36:04.072Z,19.37
2018-09-01T14:38:30.101Z,19.38
2018-09-01T14:40:57.743Z,19.37
2018-09-01T14:43:25.339Z,19.45
2018-09-01T14:45:52.951Z,19.55
2018-09-01T14:48:20.700Z,19.56
2018-09-01T14:50:48.231Z,19.50
2018-09-01T14:53:15.917Z,19.52
2018-09-01T14:55:43.514Z,19.41
2018-09-01T14:58:11.119Z,19.35
2018-09-01T15:00:38.842Z,19.34
2018-09-01T15:03:06.471Z,19.39
2018-09-01T15:05:34.102Z,19.37
2018-09-01T15:08:01.792Z,19.29
2018-09-01T15:10:29.523Z,19.19
2018-09-01T15:12:57.132Z,19.25
2018-09-01T15:15:24.748Z,19.19
2018-09-01T15:17:52.402Z,18.99
2018-09-01T15:20:20.135Z,18.90
2018-09-01T15:22:47.740Z,18.80
2018-09-01T15:25:15.400Z,18.68
2018-09-01T15:27:43.054Z,18.63
2018-09-01T15:30:10.663Z,18.62
2018-09-01T15:32:38.373Z,18.67
2018-09-01T15:35:06.184Z,18.64
2018-09-01T15:37:33.803Z,18.57
2018-09-01T15:40:01.485Z,18.54
2018-09-01T15:42:29.086Z,18.53
2018-09-01T15:44:56.676Z,18.60
2018-09-01T15:47:24.379Z,18.62
2018-09-01T15:49:52.059Z,18.59
2018-09-01T15:52:19.662Z,18.63
2018-09-01T15:54:47.343Z,18.65
2018-09-01T15:57:14.980Z,18.60
2018-09-01T15:59:42.559Z,18.57
2018-09-01T16:02:10.195Z,18.59
2018-09-01T16:04:37.891Z,18.61
2018-09-01T16:07:05.514Z,18.59
2018-09-01T16:09:33.210Z,18.51
2018-09-01T16:12:00.874Z,18.46
2018-09-01T16:14:28.524Z,18.47
2018-09-01T16:16:56.167Z,18.49
2018-09-01T16:19:23.877Z,18.50
2018-09-01T16:21:51.548Z,18.48
2018-09-01T16:24:19.224Z,18.41
2018-09-01T16:26:46.875Z,18.38
2018-09-01T16:29:14.481Z,18.28
2018-09-01T16:31:42.144Z,18.26
2018-09-01T16:34:09.736Z,18.26
2018-09-01T16:36:37.330Z,18.34
2018-09-01T16:39:05.835Z,18.41
2018-09-01T16:41:33.427Z,18.44
2018-09-01T16:44:01.039Z,18.47
2018-09-01T16:46:28.691Z,18.42
2018-09-01T16:48:56.348Z,18.40
2018-09-01T16:51:23.991Z,18.34
2018-09-01T16:53:51.680Z,18.36
2018-09-01T16:56:19.278Z,18.29
2018-09-01T16:58:47.044Z,18.28
2018-09-01T17:01:14.664Z,18.32
2018-09-01T17:03:42.307Z,18.24
2018-09-01T17:06:09.913Z,18.20
2018-09-01T17:08:37.538Z,18.21
2018-09-01T17:11:05.164Z,18.22
2018-09-01T17:13:32.748Z,18.23
2018-09-01T17:16:00.385Z,18.20
2018-09-01T17:18:28.145Z,18.15
2018-09-01T17:20:55.784Z,18.09
2018-09-01T17:23:23.407Z,18.12
2018-09-01T17:25:51.129Z,18.14
2018-09-01T17:28:18.780Z,18.14
2018-09-01T17:30:46.558Z,18.07
2018-09-01T17:33:14.251Z,17.98
2018-09-01T17:35:41.852Z,17.99
2018-09-01T17:38:09.476Z,18.03
2018-09-01T17:40:37.064Z,17.93
2018-09-01T17:43:04.867Z,17.91
2018-09-01T17:45:32.529Z,17.93
2018-09-01T17:48:00.131Z,17.93
2018-09-01T17:50:27.763Z,17.90
2018-09-01T17:52:55.403Z,17.89
2018-09-01T17:55:23.103Z,17.90
2018-09-01T17:57:50.788Z,17.90
2018-09-01T18:00:18.752Z,17.90
2018-09-01T18:02:46.353Z,17.92
2018-09-01T18:05:13.952Z,17.95
2018-09-01T18:07:41.602Z,17.91
2018-09-01T18:10:09.292Z,17.90
2018-09-01T18:12:36.919Z,17.89
2018-09-01T18:15:04.615Z,17.86
2018-09-01T18:17:32.333Z,17.82
2018-09-01T18:19:59.940Z,17.77
2018-09-01T18:22:27.614Z,17.76
2018-09-01T18:24:55.185Z,17.81
2018-09-01T18:27:22.850Z,17.84
2018-09-01T18:29:50.538Z,17.86
2018-09-01T18:32:18.151Z,17.85
2018-09-01T18:34:45.783Z,17.85
2018-09-01T18:37:13.471Z,17.86
2018-09-01T18:39:41.118Z,17.86
2018-09-01T18:42:08.812Z,17.83
2018-09-01T18:44:36.563Z,17.80
2018-09-01T18:47:04.196Z,17.76
2018-09-01T18:49:31.895Z,17.74
2018-09-01T18:51:59.540Z,17.73
2018-09-01T18:54:27.144Z,17.70
2018-09-01T18:56:54.762Z,17.66
2018-09-01T18:59:22.488Z,17.71
2018-09-01T19:01:50.136Z,17.74
2018-09-01T19:04:17.742Z,17.71
2018-09-01T19:06:45.383Z,17.58
2018-09-01T19:09:12.995Z,17.58
2018-09-01T19:11:40.606Z,17.50
2018-09-01T19:14:08.295Z,17.42
2018-09-01T19:16:35.919Z,17.39
2018-09-01T19:19:03.540Z,17.38
2018-09-01T19:21:31.251Z,17.32
2018-09-01T19:23:58.863Z,17.31
2018-09-01T19:26:26.471Z,17.27
2018-09-01T19:28:54.152Z,17.26
2018-09-01T19:31:21.799Z,17.26
2018-09-01T19:33:49.396Z,17.27
2018-09-01T19:36:17.103Z,17.26
2018-09-01T19:38:44.714Z,17.19
2018-09-01T19:41:12.314Z,17.16
2018-09-01T19:43:40.074Z,17.13
2018-09-01T19:46:07.731Z,17.12
2018-09-01T19:48:35.343Z,17.12
2018-09-01T19:51:02.992Z,17.13
2018-09-01T19:53:30.605Z,17.10
2018-09-01T19:55:58.253Z,17.06
2018-09-01T19:58:25.893Z,17.03
2018-09-01T20:00:53.489Z,17.02
2018-09-01T20:03:21.139Z,17.11
2018-09-01T20:05:48.771Z,17.21
2018-09-01T20:08:16.447Z,17.28
2018-09-01T20:10:44.075Z,17.25
2018-09-01T20:13:11.722Z,17.09
2018-09-01T20:15:39.346Z,17.06
2018-09-01T20:18:06.959Z,17.08
2018-09-01T20:20:34.591Z,17.09
2018-09-01T20:23:02.320Z,17.11
2018-09-01T20:25:30.004Z,17.18
2018-09-01T20:27:57.672Z,17.13
2018-09-01T20:30:25.335Z,17.09
2018-09-01T20:32:52.980Z,17.08
2018-09-01T20:35:26.156Z,16.96
2018-09-01T20:37:53.844Z,16.89
2018-09-01T20:40:21.659Z,16.93
2018-09-01T20:42:49.314Z,16.90
2018-09-01T20:45:17.841Z,16.92
2018-09-01T20:47:45.636Z,16.93
2018-09-01T20:50:13.475Z,17.01
2018-09-01T20:52:41.151Z,17.04
2018-09-01T20:55:09.028Z,17.11
2018-09-01T20:57:36.782Z,17.04
2018-09-01T21:00:05.105Z,17.09
2018-09-01T21:02:32.844Z,17.07
2018-09-01T21:05:00.753Z,17.07
2018-09-01T21:07:28.619Z,17.05
2018-09-01T21:09:56.462Z,17.06
2018-09-01T21:12:24.211Z,17.07
2018-09-01T21:14:51.981Z,17.07
2018-09-01T21:17:19.702Z,17.06
2018-09-01T21:19:47.452Z,17.01
2018-09-01T21:22:15.056Z,17.06
2018-09-01T21:24:42.960Z,17.09
2018-09-01T21:27:10.800Z,17.11
2018-09-01T21:29:38.478Z,17.06
2018-09-01T21:32:06.243Z,17.05
2018-09-01T21:34:34.122Z,17.11
2018-09-01T21:37:02.019Z,17.16
2018-09-01T21:39:29.896Z,17.12
2018-09-01T21:41:57.651Z,17.13
2018-09-01T21:44:25.358Z,17.15
2018-09-01T21:46:53.001Z,17.15
2018-09-01T21:49:20.715Z,17.16
2018-09-01T21:51:48.546Z,17.16
2018-09-01T21:54:16.219Z,17.23
2018-09-01T21:56:43.959Z,17.27
2018-09-01T21:59:12.387Z,17.27
2018-09-01T22:01:40.161Z,17.31
2018-09-01T22:04:07.923Z,17.34
2018-09-01T22:06:35.631Z,17.32
2018-09-01T22:09:03.767Z,17.37
2018-09-01T22:11:31.503Z,17.36
2018-09-01T22:13:59.303Z,17.34
2018-09-01T22:16:26.939Z,17.34
2018-09-01T22:18:54.606Z,17.36
2018-09-01T22:21:22.210Z,17.30
2018-09-01T22:23:49.861Z,17.25
2018-09-01T22:26:17.658Z,17.33
2018-09-01T22:28:45.281Z,17.34
2018-09-01T22:31:12.920Z,17.36
2018-09-01T22:33:40.594Z,17.35
2018-09-01T22:36:08.233Z,17.34
2018-09-01T22:38:35.898Z,17.34
2018-09-01T22:41:03.648Z,17.36
2018-09-01T22:43:31.327Z,17.32
2018-09-01T22:45:59.035Z,17.29
2018-09-01T22:48:26.665Z,17.20
2018-09-01T22:50:54.299Z,17.25
2018-09-01T22:53:21.906Z,17.21
2018-09-01T22:55:49.566Z,17.20
2018-09-01T22:58:17.226Z,17.24
2018-09-01T23:00:44.837Z,17.26
2018-09-01T23:03:12.480Z,17.22
2018-09-01T23:05:40.126Z,17.21
2018-09-01T23:08:07.740Z,17.22
2018-09-01T23:10:35.515Z,17.16
2018-09-01T23:13:03.211Z,17.17
2018-09-01T23:15:31.852Z,17.25
2018-09-01T23:17:59.477Z,17.29
2018-09-01T23:20:27.207Z,17.29
2018-09-01T23:22:54.831Z,17.29
2018-09-01T23:25:22.501Z,17.28
2018-09-01T23:27:50.197Z,17.22
2018-09-01T23:30:17.774Z,17.14
2018-09-01T23:32:45.399Z,17.11
2018-09-01T23:35:14.087Z,17.07
2018-09-01T23:37:41.689Z,17.08
2018-09-01T23:40:09.347Z,17.01
2018-09-01T23:42:37.004Z,17.05
2018-09-01T23:45:04.684Z,17.08
2018-09-01T23:47:32.323Z,17.04
2018-09-01T23:49:59.981Z,17.07
2018-09-01T23:52:27.642Z,17.07
2018-09-01T23:54:55.295Z,17.05
2018-09-01T23:57:22.922Z,17.04
2018-09-01T23:59:50.571Z,17.05
